sensor_id;sensor_type;location;lat;lon;timestamp;pressure;altitude;pressure_sealevel;temperature;humidity
67377;BME280;54261;46.086;6.588;2023-04-27T00:02:37;92514.88;;;9.96;31.46
67377;BME280;54261;46.086;6.588;2023-04-27T00:07:39;92523.38;;;9.80;32.41
67377;BME280;54261;46.086;6.588;2023-04-27T00:12:41;92500.47;;;10.23;31.65
67377;BME280;54261;46.086;6.588;2023-04-27T00:17:43;92520.84;;;9.75;31.61
67377;BME280;54261;46.086;6.588;2023-04-27T00:22:46;92523.31;;;10.03;31.05
67377;BME280;54261;46.086;6.588;2023-04-27T00:27:48;92520.66;;;10.29;31.77
67377;BME280;54261;46.086;6.588;2023-04-27T00:32:49;92521.78;;;9.30;33.89
67377;BME280;54261;46.086;6.588;2023-04-27T00:37:52;92523.66;;;10.19;32.20
67377;BME280;54261;46.086;6.588;2023-04-27T00:42:55;92523.03;;;10.48;31.62
67377;BME280;54261;46.086;6.588;2023-04-27T00:47:58;92518.34;;;9.79;31.32
67377;BME280;54261;46.086;6.588;2023-04-27T00:53:00;92520.03;;;9.66;32.94
67377;BME280;54261;46.086;6.588;2023-04-27T00:58:02;92517.53;;;10.45;31.60
67377;BME280;54261;46.086;6.588;2023-04-27T01:03:06;92508.84;;;10.39;31.68
67377;BME280;54261;46.086;6.588;2023-04-27T01:08:10;92507.81;;;9.91;31.84
67377;BME280;54261;46.086;6.588;2023-04-27T01:13:12;92508.94;;;9.99;31.58
67377;BME280;54261;46.086;6.588;2023-04-27T01:18:14;92519.34;;;10.09;32.43
67377;BME280;54261;46.086;6.588;2023-04-27T01:23:16;92512.25;;;9.15;34.47
67377;BME280;54261;46.086;6.588;2023-04-27T01:28:18;92507.72;;;6.65;38.23
67377;BME280;54261;46.086;6.588;2023-04-27T01:33:20;92517.59;;;9.15;33.83
67377;BME280;54261;46.086;6.588;2023-04-27T01:38:23;92512.63;;;9.71;33.53
67377;BME280;54261;46.086;6.588;2023-04-27T01:43:25;92521.88;;;8.93;34.82
67377;BME280;54261;46.086;6.588;2023-04-27T01:48:27;92505.31;;;9.54;33.63
67377;BME280;54261;46.086;6.588;2023-04-27T01:53:29;92533.19;;;8.90;35.21
67377;BME280;54261;46.086;6.588;2023-04-27T01:58:31;92526.16;;;9.57;33.75
67377;BME280;54261;46.086;6.588;2023-04-27T02:03:33;92522.94;;;9.46;33.59
67377;BME280;54261;46.086;6.588;2023-04-27T02:08:35;92517.63;;;8.10;34.41
67377;BME280;54261;46.086;6.588;2023-04-27T02:13:37;92509.84;;;7.29;37.52
67377;BME280;54261;46.086;6.588;2023-04-27T02:18:39;92507.00;;;8.18;35.34
67377;BME280;54261;46.086;6.588;2023-04-27T02:23:43;92503.63;;;8.72;35.51
67377;BME280;54261;46.086;6.588;2023-04-27T02:28:45;92504.75;;;9.26;34.71
67377;BME280;54261;46.086;6.588;2023-04-27T02:33:48;92490.81;;;9.15;33.91
67377;BME280;54261;46.086;6.588;2023-04-27T02:38:50;92497.44;;;8.63;35.18
67377;BME280;54261;46.086;6.588;2023-04-27T02:43:52;92483.94;;;9.63;33.88
67377;BME280;54261;46.086;6.588;2023-04-27T02:48:54;92504.41;;;9.68;34.10
67377;BME280;54261;46.086;6.588;2023-04-27T02:53:57;92507.25;;;9.62;33.22
67377;BME280;54261;46.086;6.588;2023-04-27T02:58:59;92493.38;;;9.20;33.28
67377;BME280;54261;46.086;6.588;2023-04-27T03:04:01;92516.78;;;9.05;34.00
67377;BME280;54261;46.086;6.588;2023-04-27T03:09:03;92504.16;;;9.06;33.64
67377;BME280;54261;46.086;6.588;2023-04-27T03:14:05;92511.03;;;8.98;33.95
67377;BME280;54261;46.086;6.588;2023-04-27T03:19:08;92518.00;;;9.31;33.61
67377;BME280;54261;46.086;6.588;2023-04-27T03:24:10;92503.34;;;8.74;34.65
67377;BME280;54261;46.086;6.588;2023-04-27T03:29:12;92521.69;;;8.67;35.18
67377;BME280;54261;46.086;6.588;2023-04-27T03:34:14;92524.81;;;9.05;34.64
67377;BME280;54261;46.086;6.588;2023-04-27T03:39:16;92523.41;;;9.48;33.88
67377;BME280;54261;46.086;6.588;2023-04-27T03:44:18;92519.69;;;9.58;33.46
67377;BME280;54261;46.086;6.588;2023-04-27T03:49:20;92513.72;;;9.70;33.79
67377;BME280;54261;46.086;6.588;2023-04-27T03:54:22;92489.09;;;9.51;33.27
67377;BME280;54261;46.086;6.588;2023-04-27T03:59:27;92501.00;;;9.35;33.63
67377;BME280;54261;46.086;6.588;2023-04-27T04:04:29;92517.59;;;9.15;34.12
67377;BME280;54261;46.086;6.588;2023-04-27T04:09:32;92516.69;;;9.60;33.84
67377;BME280;54261;46.086;6.588;2023-04-27T04:14:34;92524.00;;;9.77;34.02
67377;BME280;54261;46.086;6.588;2023-04-27T04:19:36;92515.81;;;9.33;34.17
67377;BME280;54261;46.086;6.588;2023-04-27T04:24:38;92520.19;;;9.29;34.75
67377;BME280;54261;46.086;6.588;2023-04-27T04:29:40;92514.25;;;9.41;34.14
67377;BME280;54261;46.086;6.588;2023-04-27T04:34:43;92485.50;;;8.92;34.58
67377;BME280;54261;46.086;6.588;2023-04-27T04:39:45;92519.34;;;9.51;34.71
67377;BME280;54261;46.086;6.588;2023-04-27T04:44:47;92516.22;;;9.58;33.89
67377;BME280;54261;46.086;6.588;2023-04-27T04:49:49;92521.50;;;9.89;34.14
67377;BME280;54261;46.086;6.588;2023-04-27T04:54:51;92514.03;;;9.69;33.62
67377;BME280;54261;46.086;6.588;2023-04-27T04:59:55;92502.56;;;9.77;32.67
67377;BME280;54261;46.086;6.588;2023-04-27T05:04:57;92529.75;;;10.02;33.71
67377;BME280;54261;46.086;6.588;2023-04-27T05:09:59;92525.69;;;10.13;32.80
67377;BME280;54261;46.086;6.588;2023-04-27T05:15:01;92506.38;;;9.35;34.18
67377;BME280;54261;46.086;6.588;2023-04-27T05:20:03;92522.69;;;9.66;34.04
67377;BME280;54261;46.086;6.588;2023-04-27T05:25:05;92491.66;;;9.24;35.49
67377;BME280;54261;46.086;6.588;2023-04-27T05:30:08;92521.59;;;8.72;36.29
67377;BME280;54261;46.086;6.588;2023-04-27T05:35:10;92527.16;;;9.39;35.10
67377;BME280;54261;46.086;6.588;2023-04-27T05:40:13;92496.34;;;9.59;34.33
67377;BME280;54261;46.086;6.588;2023-04-27T05:45:16;92520.28;;;9.55;33.98
67377;BME280;54261;46.086;6.588;2023-04-27T05:50:17;92524.66;;;9.91;33.15
67377;BME280;54261;46.086;6.588;2023-04-27T05:55:20;92522.25;;;9.72;33.70
67377;BME280;54261;46.086;6.588;2023-04-27T06:00:22;92532.34;;;10.42;33.51
67377;BME280;54261;46.086;6.588;2023-04-27T06:05:24;92528.03;;;10.15;33.15
67377;BME280;54261;46.086;6.588;2023-04-27T06:10:27;92541.50;;;10.41;33.52
67377;BME280;54261;46.086;6.588;2023-04-27T06:15:29;92534.38;;;10.89;32.65
67377;BME280;54261;46.086;6.588;2023-04-27T06:20:31;92540.53;;;10.90;32.73
67377;BME280;54261;46.086;6.588;2023-04-27T06:25:33;92540.88;;;10.53;33.40
67377;BME280;54261;46.086;6.588;2023-04-27T06:30:36;92548.44;;;10.60;33.83
67377;BME280;54261;46.086;6.588;2023-04-27T06:35:40;92551.59;;;11.06;33.55
67377;BME280;54261;46.086;6.588;2023-04-27T06:40:42;92557.44;;;10.64;33.90
67377;BME280;54261;46.086;6.588;2023-04-27T06:45:44;92557.59;;;10.76;33.97
67377;BME280;54261;46.086;6.588;2023-04-27T06:50:46;92551.75;;;11.10;33.58
67377;BME280;54261;46.086;6.588;2023-04-27T06:55:48;92526.97;;;10.25;36.01
67377;BME280;54261;46.086;6.588;2023-04-27T07:00:52;92543.06;;;10.95;34.98
67377;BME280;54261;46.086;6.588;2023-04-27T07:05:54;92518.22;;;11.16;34.85
67377;BME280;54261;46.086;6.588;2023-04-27T07:10:57;92553.88;;;11.91;34.05
67377;BME280;54261;46.086;6.588;2023-04-27T07:15:59;92554.56;;;10.96;33.11
67377;BME280;54261;46.086;6.588;2023-04-27T07:21:02;92555.88;;;9.87;34.00
67377;BME280;54261;46.086;6.588;2023-04-27T07:26:04;92553.66;;;10.83;32.98
67377;BME280;54261;46.086;6.588;2023-04-27T07:31:06;92535.59;;;11.27;32.69
67377;BME280;54261;46.086;6.588;2023-04-27T07:36:08;92504.91;;;11.76;32.30
67377;BME280;54261;46.086;6.588;2023-04-27T07:41:10;92540.78;;;11.80;32.49
67377;BME280;54261;46.086;6.588;2023-04-27T07:46:13;92543.00;;;12.59;31.72
67377;BME280;54261;46.086;6.588;2023-04-27T07:51:15;92538.16;;;10.97;33.55
67377;BME280;54261;46.086;6.588;2023-04-27T07:56:18;92526.25;;;11.72;33.11
67377;BME280;54261;46.086;6.588;2023-04-27T08:01:19;92509.44;;;10.36;36.18
67377;BME280;54261;46.086;6.588;2023-04-27T08:06:22;92528.97;;;9.52;38.66
67377;BME280;54261;46.086;6.588;2023-04-27T08:11:25;92537.72;;;10.42;37.38
67377;BME280;54261;46.086;6.588;2023-04-27T08:16:27;92534.50;;;9.24;37.19
67377;BME280;54261;46.086;6.588;2023-04-27T08:21:29;92523.97;;;11.53;35.20
67377;BME280;54261;46.086;6.588;2023-04-27T08:26:32;92526.25;;;8.66;39.95
67377;BME280;54261;46.086;6.588;2023-04-27T08:31:34;92520.41;;;9.10;39.42
67377;BME280;54261;46.086;6.588;2023-04-27T08:36:36;92516.72;;;10.53;37.10
67377;BME280;54261;46.086;6.588;2023-04-27T08:41:41;92524.44;;;10.19;37.75
67377;BME280;54261;46.086;6.588;2023-04-27T08:46:43;92512.44;;;7.48;41.00
67377;BME280;54261;46.086;6.588;2023-04-27T08:51:45;92500.25;;;7.28;41.95
67377;BME280;54261;46.086;6.588;2023-04-27T08:56:47;92508.16;;;8.63;39.17
67377;BME280;54261;46.086;6.588;2023-04-27T09:01:49;92502.25;;;9.29;38.80
67377;BME280;54261;46.086;6.588;2023-04-27T09:06:51;92499.19;;;10.56;36.00
67377;BME280;54261;46.086;6.588;2023-04-27T09:11:53;92508.00;;;8.45;39.33
67377;BME280;54261;46.086;6.588;2023-04-27T09:16:56;92507.41;;;8.12;39.48
67377;BME280;54261;46.086;6.588;2023-04-27T09:22:08;92516.78;;;8.37;39.21
67377;BME280;54261;46.086;6.588;2023-04-27T09:27:18;92519.56;;;10.48;36.74
67377;BME280;54261;46.086;6.588;2023-04-27T09:32:20;92524.34;;;11.82;35.30
67377;BME280;54261;46.086;6.588;2023-04-27T09:37:22;92511.50;;;9.63;35.99
67377;BME280;54261;46.086;6.588;2023-04-27T09:42:24;92499.06;;;7.76;39.44
67377;BME280;54261;46.086;6.588;2023-04-27T09:47:27;92489.09;;;8.87;37.34
67377;BME280;54261;46.086;6.588;2023-04-27T09:52:29;92496.56;;;9.31;36.64
67377;BME280;54261;46.086;6.588;2023-04-27T09:57:34;92490.72;;;11.19;34.56
67377;BME280;54261;46.086;6.588;2023-04-27T10:03:04;92486.75;;;10.25;34.96
67377;BME280;54261;46.086;6.588;2023-04-27T10:08:09;92492.03;;;9.98;33.83
67377;BME280;54261;46.086;6.588;2023-04-27T10:13:24;92474.69;;;11.49;33.92
67377;BME280;54261;46.086;6.588;2023-04-27T10:18:30;92492.09;;;10.42;37.49
67377;BME280;54261;46.086;6.588;2023-04-27T10:23:32;92494.47;;;10.53;37.86
67377;BME280;54261;46.086;6.588;2023-04-27T10:28:37;92482.34;;;8.90;41.53
67377;BME280;54261;46.086;6.588;2023-04-27T10:33:41;92493.38;;;9.60;40.35
67377;BME280;54261;46.086;6.588;2023-04-27T10:38:44;92483.88;;;10.65;38.90
67377;BME280;54261;46.086;6.588;2023-04-27T10:43:46;92481.50;;;10.37;37.32
67377;BME280;54261;46.086;6.588;2023-04-27T10:48:48;92479.16;;;10.53;38.83
67377;BME280;54261;46.086;6.588;2023-04-27T10:53:53;92466.47;;;13.03;34.82
67377;BME280;54261;46.086;6.588;2023-04-27T10:59:03;92478.44;;;13.52;33.06
67377;BME280;54261;46.086;6.588;2023-04-27T11:04:05;92475.28;;;11.85;35.81
67377;BME280;54261;46.086;6.588;2023-04-27T11:09:07;92467.94;;;12.24;35.07
67377;BME280;54261;46.086;6.588;2023-04-27T11:14:14;92465.19;;;12.12;35.13
67377;BME280;54261;46.086;6.588;2023-04-27T11:19:17;92464.72;;;11.11;35.78
67377;BME280;54261;46.086;6.588;2023-04-27T11:24:19;92464.19;;;12.38;34.16
67377;BME280;54261;46.086;6.588;2023-04-27T11:29:20;92464.66;;;12.40;34.48
67377;BME280;54261;46.086;6.588;2023-04-27T11:34:23;92460.09;;;13.20;32.85
67377;BME280;54261;46.086;6.588;2023-04-27T11:39:27;92459.22;;;13.28;34.84
67377;BME280;54261;46.086;6.588;2023-04-27T11:44:32;92447.13;;;11.82;35.13
67377;BME280;54261;46.086;6.588;2023-04-27T11:49:34;92452.38;;;12.09;34.46
67377;BME280;54261;46.086;6.588;2023-04-27T11:54:36;92459.91;;;13.88;33.04
67377;BME280;54261;46.086;6.588;2023-04-27T11:59:38;92464.19;;;13.89;31.33
67377;BME280;54261;46.086;6.588;2023-04-27T12:04:39;92475.78;;;13.77;32.33
67377;BME280;54261;46.086;6.588;2023-04-27T12:09:42;92463.63;;;12.87;32.77
67377;BME280;54261;46.086;6.588;2023-04-27T12:14:44;92462.28;;;11.96;34.00
67377;BME280;54261;46.086;6.588;2023-04-27T12:19:46;92471.47;;;12.92;34.46
67377;BME280;54261;46.086;6.588;2023-04-27T12:24:48;92461.22;;;12.30;33.38
67377;BME280;54261;46.086;6.588;2023-04-27T12:29:50;92465.56;;;12.99;34.41
67377;BME280;54261;46.086;6.588;2023-04-27T12:34:52;92397.50;;;12.43;33.77
67377;BME280;54261;46.086;6.588;2023-04-27T12:39:54;92473.47;;;13.17;32.02
67377;BME280;54261;46.086;6.588;2023-04-27T12:44:56;92482.25;;;12.71;33.79
67377;BME280;54261;46.086;6.588;2023-04-27T12:49:58;92459.06;;;12.79;34.20
67377;BME280;54261;46.086;6.588;2023-04-27T12:55:00;92491.84;;;13.98;32.71
67377;BME280;54261;46.086;6.588;2023-04-27T13:00:03;92481.63;;;15.14;31.66
67377;BME280;54261;46.086;6.588;2023-04-27T13:05:07;92474.19;;;14.13;32.44
67377;BME280;54261;46.086;6.588;2023-04-27T13:10:09;92458.94;;;13.09;33.52
67377;BME280;54261;46.086;6.588;2023-04-27T13:15:12;92463.44;;;13.05;34.93
67377;BME280;54261;46.086;6.588;2023-04-27T13:20:14;92470.00;;;14.03;32.53
67377;BME280;54261;46.086;6.588;2023-04-27T13:25:16;92468.41;;;13.15;33.63
67377;BME280;54261;46.086;6.588;2023-04-27T13:30:18;92457.06;;;14.21;34.03
67377;BME280;54261;46.086;6.588;2023-04-27T13:35:20;92458.88;;;13.30;33.80
67377;BME280;54261;46.086;6.588;2023-04-27T13:40:22;92460.56;;;13.35;33.84
67377;BME280;54261;46.086;6.588;2023-04-27T13:45:23;92441.31;;;14.23;32.46
67377;BME280;54261;46.086;6.588;2023-04-27T13:50:25;92461.75;;;12.79;33.43
67377;BME280;54261;46.086;6.588;2023-04-27T13:55:27;92458.28;;;14.24;32.16
67377;BME280;54261;46.086;6.588;2023-04-27T14:00:30;92463.16;;;16.32;31.13
67377;BME280;54261;46.086;6.588;2023-04-27T14:05:35;92460.63;;;13.72;32.90
67377;BME280;54261;46.086;6.588;2023-04-27T14:10:37;92453.97;;;15.85;29.84
67377;BME280;54261;46.086;6.588;2023-04-27T14:15:40;92452.44;;;15.36;29.65
67377;BME280;54261;46.086;6.588;2023-04-27T14:20:43;92456.25;;;16.35;27.40
67377;BME280;54261;46.086;6.588;2023-04-27T14:25:45;92444.84;;;14.81;30.52
67377;BME280;54261;46.086;6.588;2023-04-27T14:30:47;92445.63;;;15.74;29.07
67377;BME280;54261;46.086;6.588;2023-04-27T14:35:48;92466.31;;;13.83;31.49
67377;BME280;54261;46.086;6.588;2023-04-27T14:40:50;92452.94;;;15.25;28.47
67377;BME280;54261;46.086;6.588;2023-04-27T14:45:52;92435.66;;;16.30;29.53
67377;BME280;54261;46.086;6.588;2023-04-27T14:51:08;92455.03;;;17.11;28.26
67377;BME280;54261;46.086;6.588;2023-04-27T14:56:11;92454.69;;;17.83;25.26
67377;BME280;54261;46.086;6.588;2023-04-27T15:01:13;92463.91;;;17.08;26.02
67377;BME280;54261;46.086;6.588;2023-04-27T15:06:15;92465.25;;;18.15;25.41
67377;BME280;54261;46.086;6.588;2023-04-27T15:11:17;92465.94;;;16.00;28.27
67377;BME280;54261;46.086;6.588;2023-04-27T15:16:19;92450.38;;;16.13;26.56
67377;BME280;54261;46.086;6.588;2023-04-27T15:21:22;92452.13;;;15.09;27.67
67377;BME280;54261;46.086;6.588;2023-04-27T15:26:25;92468.38;;;18.74;24.86
67377;BME280;54261;46.086;6.588;2023-04-27T15:31:27;92461.16;;;16.85;26.99
67377;BME280;54261;46.086;6.588;2023-04-27T15:36:29;92469.44;;;16.56;27.40
67377;BME280;54261;46.086;6.588;2023-04-27T15:41:32;92450.03;;;16.34;27.44
67377;BME280;54261;46.086;6.588;2023-04-27T15:46:34;92449.78;;;17.92;25.22
67377;BME280;54261;46.086;6.588;2023-04-27T15:51:36;92455.53;;;18.71;24.64
67377;BME280;54261;46.086;6.588;2023-04-27T15:56:37;92436.44;;;17.80;24.39
67377;BME280;54261;46.086;6.588;2023-04-27T16:01:39;92456.84;;;16.08;25.80
67377;BME280;54261;46.086;6.588;2023-04-27T16:06:41;92452.78;;;16.54;27.50
67377;BME280;54261;46.086;6.588;2023-04-27T16:11:43;92455.03;;;18.62;24.25
67377;BME280;54261;46.086;6.588;2023-04-27T16:16:46;92433.72;;;20.41;23.11
67377;BME280;54261;46.086;6.588;2023-04-27T16:21:48;92447.41;;;17.87;24.63
67377;BME280;54261;46.086;6.588;2023-04-27T16:26:51;92452.03;;;19.84;22.43
67377;BME280;54261;46.086;6.588;2023-04-27T16:31:52;92439.94;;;17.33;26.57
67377;BME280;54261;46.086;6.588;2023-04-27T16:36:54;92410.97;;;15.80;27.10
67377;BME280;54261;46.086;6.588;2023-04-27T16:41:56;92422.59;;;17.61;25.12
67377;BME280;54261;46.086;6.588;2023-04-27T16:46:58;92431.31;;;17.74;24.77
67377;BME280;54261;46.086;6.588;2023-04-27T16:52:00;92442.16;;;18.89;23.40
67377;BME280;54261;46.086;6.588;2023-04-27T16:57:02;92436.78;;;18.62;23.83
67377;BME280;54261;46.086;6.588;2023-04-27T17:02:05;92434.50;;;19.82;21.97
67377;BME280;54261;46.086;6.588;2023-04-27T17:07:25;92441.13;;;18.10;23.99
67377;BME280;54261;46.086;6.588;2023-04-27T17:12:29;92443.66;;;16.43;26.70
67377;BME280;54261;46.086;6.588;2023-04-27T17:17:34;92446.00;;;16.08;26.32
67377;BME280;54261;46.086;6.588;2023-04-27T17:22:36;92446.13;;;15.96;26.40
67377;BME280;54261;46.086;6.588;2023-04-27T17:27:38;92462.81;;;15.34;26.51
67377;BME280;54261;46.086;6.588;2023-04-27T17:32:40;92456.47;;;16.46;25.43
67377;BME280;54261;46.086;6.588;2023-04-27T17:37:42;92455.41;;;16.50;26.24
67377;BME280;54261;46.086;6.588;2023-04-27T17:42:44;92457.53;;;15.09;27.53
67377;BME280;54261;46.086;6.588;2023-04-27T17:47:46;92457.59;;;15.57;26.52
67377;BME280;54261;46.086;6.588;2023-04-27T17:52:47;92458.25;;;15.22;26.02
67377;BME280;54261;46.086;6.588;2023-04-27T17:57:51;92391.97;;;14.80;27.33
67377;BME280;54261;46.086;6.588;2023-04-27T18:02:53;92381.63;;;16.57;25.01
67377;BME280;54261;46.086;6.588;2023-04-27T18:07:55;92429.44;;;18.97;23.81
67377;BME280;54261;46.086;6.588;2023-04-27T18:12:57;92419.19;;;18.83;23.16
67377;BME280;54261;46.086;6.588;2023-04-27T18:17:59;92486.63;;;18.74;22.91
67377;BME280;54261;46.086;6.588;2023-04-27T18:23:01;92456.63;;;19.80;22.99
67377;BME280;54261;46.086;6.588;2023-04-27T18:28:03;92493.97;;;19.83;23.82
67377;BME280;54261;46.086;6.588;2023-04-27T18:33:06;92474.16;;;20.32;23.05
67377;BME280;54261;46.086;6.588;2023-04-27T18:38:09;92487.47;;;19.95;23.01
67377;BME280;54261;46.086;6.588;2023-04-27T18:43:11;92484.81;;;19.19;24.23
67377;BME280;54261;46.086;6.588;2023-04-27T18:48:13;92478.53;;;19.95;23.21
67377;BME280;54261;46.086;6.588;2023-04-27T18:53:15;92504.06;;;18.73;26.19
67377;BME280;54261;46.086;6.588;2023-04-27T18:58:17;92516.28;;;17.78;28.05
67377;BME280;54261;46.086;6.588;2023-04-27T19:03:18;92506.44;;;17.70;26.99
67377;BME280;54261;46.086;6.588;2023-04-27T19:08:21;92509.69;;;18.57;25.60
67377;BME280;54261;46.086;6.588;2023-04-27T19:13:23;92519.56;;;18.99;24.75
67377;BME280;54261;46.086;6.588;2023-04-27T19:18:25;92523.81;;;17.89;25.67
67377;BME280;54261;46.086;6.588;2023-04-27T19:23:27;92521.59;;;16.89;29.64
67377;BME280;54261;46.086;6.588;2023-04-27T19:28:29;92516.09;;;17.48;28.34
67377;BME280;54261;46.086;6.588;2023-04-27T19:33:31;92508.22;;;17.39;27.76
67377;BME280;54261;46.086;6.588;2023-04-27T19:38:34;92523.78;;;15.47;33.06
67377;BME280;54261;46.086;6.588;2023-04-27T19:43:36;92534.91;;;15.90;30.85
67377;BME280;54261;46.086;6.588;2023-04-27T19:48:38;92547.31;;;15.02;31.38
67377;BME280;54261;46.086;6.588;2023-04-27T19:53:42;92537.75;;;16.30;29.70
67377;BME280;54261;46.086;6.588;2023-04-27T19:58:44;92536.44;;;16.23;28.92
67377;BME280;54261;46.086;6.588;2023-04-27T20:03:47;92543.06;;;15.46;32.36
67377;BME280;54261;46.086;6.588;2023-04-27T20:08:49;92546.97;;;15.04;33.17
67377;BME280;54261;46.086;6.588;2023-04-27T20:13:51;92562.75;;;16.59;30.41
67377;BME280;54261;46.086;6.588;2023-04-27T20:18:53;92549.09;;;16.35;29.52
67377;BME280;54261;46.086;6.588;2023-04-27T20:23:56;92564.06;;;16.13;30.19
67377;BME280;54261;46.086;6.588;2023-04-27T20:28:57;92557.94;;;15.84;30.43
67377;BME280;54261;46.086;6.588;2023-04-27T20:33:59;92552.69;;;15.91;30.08
67377;BME280;54261;46.086;6.588;2023-04-27T20:39:01;92553.56;;;16.28;29.93
67377;BME280;54261;46.086;6.588;2023-04-27T20:44:04;92550.78;;;15.76;30.29
67377;BME280;54261;46.086;6.588;2023-04-27T20:49:06;92571.38;;;15.64;31.04
67377;BME280;54261;46.086;6.588;2023-04-27T20:54:08;92560.91;;;16.27;30.02
67377;BME280;54261;46.086;6.588;2023-04-27T20:59:10;92561.16;;;16.22;30.60
67377;BME280;54261;46.086;6.588;2023-04-27T21:04:12;92516.63;;;15.87;30.36
67377;BME280;54261;46.086;6.588;2023-04-27T21:09:14;92570.81;;;16.39;30.53
67377;BME280;54261;46.086;6.588;2023-04-27T21:14:16;92563.09;;;14.47;34.24
67377;BME280;54261;46.086;6.588;2023-04-27T21:19:18;92558.97;;;15.06;33.25
67377;BME280;54261;46.086;6.588;2023-04-27T21:24:20;92537.84;;;15.24;32.85
67377;BME280;54261;46.086;6.588;2023-04-27T21:29:22;92557.75;;;15.77;31.77
67377;BME280;54261;46.086;6.588;2023-04-27T21:34:24;92556.44;;;14.97;32.55
67377;BME280;54261;46.086;6.588;2023-04-27T21:39:25;92528.13;;;15.36;31.48
67377;BME280;54261;46.086;6.588;2023-04-27T21:44:27;92540.38;;;14.23;31.84
67377;BME280;54261;46.086;6.588;2023-04-27T21:49:29;92532.19;;;14.07;34.47
67377;BME280;54261;46.086;6.588;2023-04-27T21:54:31;92540.06;;;14.12;34.28
67377;BME280;54261;46.086;6.588;2023-04-27T21:59:33;92530.38;;;14.89;32.63
67377;BME280;54261;46.086;6.588;2023-04-27T22:04:35;92523.56;;;14.95;32.60
67377;BME280;54261;46.086;6.588;2023-04-27T22:09:39;92537.75;;;14.39;33.88
67377;BME280;54261;46.086;6.588;2023-04-27T22:14:42;92533.03;;;14.36;33.19
67377;BME280;54261;46.086;6.588;2023-04-27T22:19:43;92543.38;;;13.59;33.77
67377;BME280;54261;46.086;6.588;2023-04-27T22:24:46;92536.75;;;14.44;33.83
67377;BME280;54261;46.086;6.588;2023-04-27T22:29:48;92542.41;;;14.13;34.32
67377;BME280;54261;46.086;6.588;2023-04-27T22:34:50;92545.22;;;14.83;33.06
67377;BME280;54261;46.086;6.588;2023-04-27T22:39:52;92538.69;;;14.55;33.36
67377;BME280;54261;46.086;6.588;2023-04-27T22:44:53;92549.16;;;14.86;32.58
67377;BME280;54261;46.086;6.588;2023-04-27T22:49:55;92542.28;;;15.17;32.13
67377;BME280;54261;46.086;6.588;2023-04-27T22:54:57;92539.03;;;14.04;34.15
67377;BME280;54261;46.086;6.588;2023-04-27T22:59:59;92538.22;;;14.94;32.59
67377;BME280;54261;46.086;6.588;2023-04-27T23:05:01;92540.91;;;14.94;33.02
67377;BME280;54261;46.086;6.588;2023-04-27T23:10:03;92544.63;;;14.90;32.85
67377;BME280;54261;46.086;6.588;2023-04-27T23:15:06;92554.50;;;14.45;33.31
67377;BME280;54261;46.086;6.588;2023-04-27T23:20:09;92528.31;;;15.27;32.04
67377;BME280;54261;46.086;6.588;2023-04-27T23:25:30;92556.03;;;15.40;31.74
67377;BME280;54261;46.086;6.588;2023-04-27T23:30:32;92536.84;;;15.29;31.97
67377;BME280;54261;46.086;6.588;2023-04-27T23:35:34;92536.72;;;15.54;32.00
67377;BME280;54261;46.086;6.588;2023-04-27T23:40:36;92539.94;;;14.33;33.42
67377;BME280;54261;46.086;6.588;2023-04-27T23:45:38;92541.84;;;15.43;31.02
67377;BME280;54261;46.086;6.588;2023-04-27T23:50:40;92495.16;;;14.32;32.40
67377;BME280;54261;46.086;6.588;2023-04-27T23:55:42;92531.69;;;14.95;31.14
